sensor_id;sensor_type;location;lat;lon;timestamp;P1;durP1;ratioP1;P2;durP2;ratioP2
23129;SDS011;11734;51.046;13.778;2023-08-20T00:01:08;11.23;;;10.13;;
23129;SDS011;11734;51.046;13.778;2023-08-20T00:03:39;10.57;;;9.47;;
23129;SDS011;11734;51.046;13.778;2023-08-20T00:06:07;13.43;;;10.23;;
23129;SDS011;11734;51.046;13.778;2023-08-20T00:08:34;9.97;;;8.97;;
23129;SDS011;11734;51.046;13.778;2023-08-20T00:11:02;10.90;;;9.73;;
23129;SDS011;11734;51.046;13.778;2023-08-20T00:13:31;10.67;;;9.57;;
23129;SDS011;11734;51.046;13.778;2023-08-20T00:15:58;10.90;;;9.83;;
23129;SDS011;11734;51.046;13.778;2023-08-20T00:18:25;11.40;;;10.30;;
23129;SDS011;11734;51.046;13.778;2023-08-20T00:20:53;11.23;;;10.13;;
23129;SDS011;11734;51.046;13.778;2023-08-20T00:23:20;11.93;;;10.73;;
23129;SDS011;11734;51.046;13.778;2023-08-20T00:26:06;11.27;;;10.17;;
23129;SDS011;11734;51.046;13.778;2023-08-20T00:28:34;11.23;;;10.13;;
23129;SDS011;11734;51.046;13.778;2023-08-20T00:31:02;10.47;;;9.47;;
23129;SDS011;11734;51.046;13.778;2023-08-20T00:33:31;11.40;;;10.30;;
23129;SDS011;11734;51.046;13.778;2023-08-20T00:35:58;10.70;;;9.60;;
23129;SDS011;11734;51.046;13.778;2023-08-20T00:38:25;11.90;;;10.10;;
23129;SDS011;11734;51.046;13.778;2023-08-20T00:40:53;10.90;;;9.80;;
23129;SDS011;11734;51.046;13.778;2023-08-20T00:43:20;11.43;;;10.27;;
23129;SDS011;11734;51.046;13.778;2023-08-20T00:45:48;10.80;;;9.40;;
23129;SDS011;11734;51.046;13.778;2023-08-20T00:48:15;11.07;;;9.53;;
23129;SDS011;11734;51.046;13.778;2023-08-20T00:50:42;10.97;;;9.87;;
23129;SDS011;11734;51.046;13.778;2023-08-20T00:53:10;10.77;;;9.67;;
23129;SDS011;11734;51.046;13.778;2023-08-20T00:55:38;10.00;;;8.97;;
23129;SDS011;11734;51.046;13.778;2023-08-20T00:58:05;10.70;;;9.60;;
23129;SDS011;11734;51.046;13.778;2023-08-20T01:00:32;9.60;;;8.70;;
23129;SDS011;11734;51.046;13.778;2023-08-20T01:02:59;10.63;;;9.53;;
23129;SDS011;11734;51.046;13.778;2023-08-20T01:05:26;12.33;;;9.47;;
23129;SDS011;11734;51.046;13.778;2023-08-20T01:13:08;10.10;;;9.07;;
23129;SDS011;11734;51.046;13.778;2023-08-20T01:15:36;10.03;;;9.03;;
23129;SDS011;11734;51.046;13.778;2023-08-20T01:18:02;10.30;;;9.23;;
23129;SDS011;11734;51.046;13.778;2023-08-20T01:20:31;10.40;;;9.27;;
23129;SDS011;11734;51.046;13.778;2023-08-20T01:25:56;10.93;;;9.40;;
23129;SDS011;11734;51.046;13.778;2023-08-20T01:28:44;9.77;;;8.87;;
23129;SDS011;11734;51.046;13.778;2023-08-20T01:31:11;10.60;;;9.57;;
23129;SDS011;11734;51.046;13.778;2023-08-20T01:33:39;10.63;;;9.53;;
23129;SDS011;11734;51.046;13.778;2023-08-20T01:36:07;9.90;;;8.90;;
23129;SDS011;11734;51.046;13.778;2023-08-20T01:38:37;10.60;;;9.60;;
23129;SDS011;11734;51.046;13.778;2023-08-20T01:41:04;10.60;;;9.50;;
23129;SDS011;11734;51.046;13.778;2023-08-20T01:43:32;9.77;;;8.77;;
23129;SDS011;11734;51.046;13.778;2023-08-20T01:45:58;10.13;;;9.20;;
23129;SDS011;11734;51.046;13.778;2023-08-20T01:48:25;10.10;;;9.20;;
23129;SDS011;11734;51.046;13.778;2023-08-20T01:50:52;10.30;;;9.23;;
23129;SDS011;11734;51.046;13.778;2023-08-20T01:53:19;10.53;;;9.50;;
23129;SDS011;11734;51.046;13.778;2023-08-20T01:55:46;10.83;;;9.40;;
23129;SDS011;11734;51.046;13.778;2023-08-20T01:58:13;10.50;;;9.50;;
23129;SDS011;11734;51.046;13.778;2023-08-20T02:00:41;11.70;;;8.97;;
23129;SDS011;11734;51.046;13.778;2023-08-20T02:03:08;10.37;;;9.20;;
23129;SDS011;11734;51.046;13.778;2023-08-20T02:05:36;9.73;;;8.73;;
23129;SDS011;11734;51.046;13.778;2023-08-20T02:08:08;10.27;;;9.37;;
23129;SDS011;11734;51.046;13.778;2023-08-20T02:10:36;10.33;;;9.30;;
23129;SDS011;11734;51.046;13.778;2023-08-20T02:13:04;10.40;;;9.40;;
23129;SDS011;11734;51.046;13.778;2023-08-20T02:18:26;10.33;;;9.27;;
23129;SDS011;11734;51.046;13.778;2023-08-20T02:20:53;10.00;;;9.00;;
23129;SDS011;11734;51.046;13.778;2023-08-20T02:23:20;10.57;;;9.17;;
23129;SDS011;11734;51.046;13.778;2023-08-20T02:25:49;10.10;;;9.10;;
23129;SDS011;11734;51.046;13.778;2023-08-20T02:28:16;9.47;;;8.57;;
23129;SDS011;11734;51.046;13.778;2023-08-20T02:30:43;10.57;;;9.50;;
23129;SDS011;11734;51.046;13.778;2023-08-20T02:33:12;10.53;;;9.43;;
23129;SDS011;11734;51.046;13.778;2023-08-20T02:35:39;10.40;;;9.20;;
23129;SDS011;11734;51.046;13.778;2023-08-20T02:38:06;10.30;;;9.20;;
23129;SDS011;11734;51.046;13.778;2023-08-20T02:40:39;10.03;;;9.03;;
23129;SDS011;11734;51.046;13.778;2023-08-20T02:43:07;9.87;;;8.93;;
23129;SDS011;11734;51.046;13.778;2023-08-20T02:45:41;10.20;;;9.20;;
23129;SDS011;11734;51.046;13.778;2023-08-20T02:48:09;10.00;;;9.00;;
23129;SDS011;11734;51.046;13.778;2023-08-20T02:50:36;10.03;;;9.13;;
23129;SDS011;11734;51.046;13.778;2023-08-20T02:53:03;10.03;;;8.83;;
23129;SDS011;11734;51.046;13.778;2023-08-20T02:55:31;10.43;;;9.40;;
23129;SDS011;11734;51.046;13.778;2023-08-20T02:57:59;10.10;;;9.07;;
23129;SDS011;11734;51.046;13.778;2023-08-20T03:00:26;9.93;;;8.90;;
23129;SDS011;11734;51.046;13.778;2023-08-20T03:02:54;10.47;;;9.40;;
23129;SDS011;11734;51.046;13.778;2023-08-20T03:05:21;10.73;;;8.93;;
23129;SDS011;11734;51.046;13.778;2023-08-20T03:07:48;10.27;;;9.27;;
23129;SDS011;11734;51.046;13.778;2023-08-20T03:10:15;9.70;;;8.80;;
23129;SDS011;11734;51.046;13.778;2023-08-20T03:12:42;10.53;;;9.43;;
23129;SDS011;11734;51.046;13.778;2023-08-20T03:15:09;10.53;;;9.33;;
23129;SDS011;11734;51.046;13.778;2023-08-20T03:17:36;10.67;;;9.57;;
23129;SDS011;11734;51.046;13.778;2023-08-20T03:20:04;10.73;;;9.73;;
23129;SDS011;11734;51.046;13.778;2023-08-20T03:22:32;10.40;;;9.40;;
23129;SDS011;11734;51.046;13.778;2023-08-20T03:25:00;9.90;;;9.00;;
23129;SDS011;11734;51.046;13.778;2023-08-20T03:27:26;10.47;;;8.97;;
23129;SDS011;11734;51.046;13.778;2023-08-20T03:29:53;10.53;;;9.53;;
23129;SDS011;11734;51.046;13.778;2023-08-20T03:32:21;10.60;;;9.60;;
23129;SDS011;11734;51.046;13.778;2023-08-20T03:34:48;10.37;;;9.43;;
23129;SDS011;11734;51.046;13.778;2023-08-20T03:37:17;11.10;;;9.10;;
23129;SDS011;11734;51.046;13.778;2023-08-20T03:39:44;11.10;;;10.00;;
23129;SDS011;11734;51.046;13.778;2023-08-20T03:42:12;11.27;;;9.77;;
23129;SDS011;11734;51.046;13.778;2023-08-20T03:44:38;10.80;;;8.83;;
23129;SDS011;11734;51.046;13.778;2023-08-20T03:47:05;10.83;;;9.73;;
23129;SDS011;11734;51.046;13.778;2023-08-20T03:49:35;10.40;;;9.37;;
23129;SDS011;11734;51.046;13.778;2023-08-20T03:52:02;10.13;;;9.07;;
23129;SDS011;11734;51.046;13.778;2023-08-20T03:54:29;10.57;;;9.17;;
23129;SDS011;11734;51.046;13.778;2023-08-20T03:56:56;12.07;;;10.03;;
23129;SDS011;11734;51.046;13.778;2023-08-20T03:59:23;10.37;;;9.33;;
23129;SDS011;11734;51.046;13.778;2023-08-20T04:01:50;10.47;;;9.47;;
23129;SDS011;11734;51.046;13.778;2023-08-20T04:04:17;10.27;;;9.27;;
23129;SDS011;11734;51.046;13.778;2023-08-20T04:06:44;10.47;;;9.37;;
23129;SDS011;11734;51.046;13.778;2023-08-20T04:09:11;10.13;;;9.10;;
23129;SDS011;11734;51.046;13.778;2023-08-20T04:11:38;11.40;;;10.30;;
23129;SDS011;11734;51.046;13.778;2023-08-20T04:14:05;11.20;;;10.10;;
23129;SDS011;11734;51.046;13.778;2023-08-20T04:16:32;11.43;;;9.83;;
23129;SDS011;11734;51.046;13.778;2023-08-20T04:18:59;11.07;;;9.97;;
23129;SDS011;11734;51.046;13.778;2023-08-20T04:21:26;10.33;;;9.43;;
23129;SDS011;11734;51.046;13.778;2023-08-20T04:23:53;11.77;;;9.30;;
23129;SDS011;11734;51.046;13.778;2023-08-20T04:26:20;10.53;;;9.53;;
23129;SDS011;11734;51.046;13.778;2023-08-20T04:28:47;10.10;;;9.00;;
23129;SDS011;11734;51.046;13.778;2023-08-20T04:31:13;11.23;;;10.13;;
23129;SDS011;11734;51.046;13.778;2023-08-20T04:33:56;12.37;;;9.83;;
23129;SDS011;11734;51.046;13.778;2023-08-20T04:36:35;10.63;;;9.53;;
23129;SDS011;11734;51.046;13.778;2023-08-20T04:39:03;11.00;;;9.83;;
23129;SDS011;11734;51.046;13.778;2023-08-20T04:41:34;11.20;;;10.13;;
23129;SDS011;11734;51.046;13.778;2023-08-20T04:44:01;11.10;;;10.00;;
23129;SDS011;11734;51.046;13.778;2023-08-20T04:46:28;10.30;;;9.30;;
23129;SDS011;11734;51.046;13.778;2023-08-20T04:48:55;10.17;;;9.00;;
23129;SDS011;11734;51.046;13.778;2023-08-20T04:51:22;10.00;;;9.00;;
23129;SDS011;11734;51.046;13.778;2023-08-20T04:53:50;10.17;;;9.00;;
23129;SDS011;11734;51.046;13.778;2023-08-20T04:56:17;10.73;;;9.63;;
23129;SDS011;11734;51.046;13.778;2023-08-20T04:58:45;9.93;;;8.90;;
23129;SDS011;11734;51.046;13.778;2023-08-20T05:01:20;9.40;;;8.43;;
23129;SDS011;11734;51.046;13.778;2023-08-20T05:03:47;10.97;;;8.00;;
23129;SDS011;11734;51.046;13.778;2023-08-20T05:06:14;8.23;;;7.40;;
23129;SDS011;11734;51.046;13.778;2023-08-20T05:08:42;8.83;;;7.93;;
23129;SDS011;11734;51.046;13.778;2023-08-20T05:11:09;8.87;;;7.43;;
23129;SDS011;11734;51.046;13.778;2023-08-20T05:13:36;8.87;;;7.37;;
23129;SDS011;11734;51.046;13.778;2023-08-20T05:16:03;9.17;;;7.50;;
23129;SDS011;11734;51.046;13.778;2023-08-20T05:18:30;7.60;;;6.80;;
23129;SDS011;11734;51.046;13.778;2023-08-20T05:20:57;8.03;;;7.10;;
23129;SDS011;11734;51.046;13.778;2023-08-20T05:23:24;10.43;;;7.23;;
23129;SDS011;11734;51.046;13.778;2023-08-20T05:25:51;7.60;;;6.80;;
23129;SDS011;11734;51.046;13.778;2023-08-20T05:28:19;7.43;;;6.73;;
23129;SDS011;11734;51.046;13.778;2023-08-20T05:30:53;8.50;;;7.10;;
23129;SDS011;11734;51.046;13.778;2023-08-20T05:33:22;7.37;;;6.63;;
23129;SDS011;11734;51.046;13.778;2023-08-20T05:35:50;7.70;;;6.90;;
23129;SDS011;11734;51.046;13.778;2023-08-20T05:38:17;9.00;;;7.00;;
23129;SDS011;11734;51.046;13.778;2023-08-20T05:40:46;7.63;;;6.80;;
23129;SDS011;11734;51.046;13.778;2023-08-20T05:43:13;7.60;;;6.50;;
23129;SDS011;11734;51.046;13.778;2023-08-20T05:45:40;9.37;;;7.00;;
23129;SDS011;11734;51.046;13.778;2023-08-20T05:48:10;7.83;;;7.03;;
23129;SDS011;11734;51.046;13.778;2023-08-20T05:50:37;7.40;;;6.63;;
23129;SDS011;11734;51.046;13.778;2023-08-20T05:53:05;7.47;;;6.77;;
23129;SDS011;11734;51.046;13.778;2023-08-20T05:55:31;7.30;;;6.60;;
23129;SDS011;11734;51.046;13.778;2023-08-20T05:57:59;7.27;;;6.57;;
23129;SDS011;11734;51.046;13.778;2023-08-20T06:00:26;7.47;;;6.77;;
23129;SDS011;11734;51.046;13.778;2023-08-20T06:02:53;6.83;;;6.13;;
23129;SDS011;11734;51.046;13.778;2023-08-20T06:05:20;7.30;;;6.60;;
23129;SDS011;11734;51.046;13.778;2023-08-20T06:07:47;8.67;;;7.30;;
23129;SDS011;11734;51.046;13.778;2023-08-20T06:10:32;7.40;;;6.70;;
23129;SDS011;11734;51.046;13.778;2023-08-20T06:12:59;8.23;;;7.00;;
23129;SDS011;11734;51.046;13.778;2023-08-20T06:15:26;8.07;;;7.27;;
23129;SDS011;11734;51.046;13.778;2023-08-20T06:17:53;7.80;;;7.10;;
23129;SDS011;11734;51.046;13.778;2023-08-20T06:20:20;7.73;;;6.97;;
23129;SDS011;11734;51.046;13.778;2023-08-20T06:22:47;7.77;;;6.60;;
23129;SDS011;11734;51.046;13.778;2023-08-20T06:25:14;8.00;;;7.20;;
23129;SDS011;11734;51.046;13.778;2023-08-20T06:27:42;8.53;;;7.50;;
23129;SDS011;11734;51.046;13.778;2023-08-20T06:30:09;7.83;;;7.13;;
23129;SDS011;11734;51.046;13.778;2023-08-20T06:32:36;8.20;;;6.90;;
23129;SDS011;11734;51.046;13.778;2023-08-20T06:35:03;7.63;;;6.93;;
23129;SDS011;11734;51.046;13.778;2023-08-20T06:37:31;8.53;;;7.37;;
23129;SDS011;11734;51.046;13.778;2023-08-20T06:40:00;7.37;;;6.37;;
23129;SDS011;11734;51.046;13.778;2023-08-20T06:42:27;7.10;;;6.40;;
23129;SDS011;11734;51.046;13.778;2023-08-20T06:44:54;7.57;;;6.67;;
23129;SDS011;11734;51.046;13.778;2023-08-20T06:47:21;9.23;;;7.57;;
23129;SDS011;11734;51.046;13.778;2023-08-20T06:49:52;7.67;;;6.97;;
23129;SDS011;11734;51.046;13.778;2023-08-20T06:52:19;8.43;;;7.53;;
23129;SDS011;11734;51.046;13.778;2023-08-20T06:54:46;9.07;;;7.07;;
23129;SDS011;11734;51.046;13.778;2023-08-20T06:57:13;7.30;;;6.57;;
23129;SDS011;11734;51.046;13.778;2023-08-20T06:59:40;7.13;;;6.50;;
23129;SDS011;11734;51.046;13.778;2023-08-20T07:02:09;7.47;;;6.77;;
23129;SDS011;11734;51.046;13.778;2023-08-20T07:04:36;8.10;;;7.10;;
23129;SDS011;11734;51.046;13.778;2023-08-20T07:07:03;7.33;;;6.63;;
23129;SDS011;11734;51.046;13.778;2023-08-20T07:09:34;7.37;;;6.67;;
23129;SDS011;11734;51.046;13.778;2023-08-20T07:12:01;9.13;;;6.63;;
23129;SDS011;11734;51.046;13.778;2023-08-20T07:14:29;7.50;;;6.70;;
23129;SDS011;11734;51.046;13.778;2023-08-20T07:16:55;9.37;;;6.77;;
23129;SDS011;11734;51.046;13.778;2023-08-20T07:19:22;7.70;;;6.90;;
23129;SDS011;11734;51.046;13.778;2023-08-20T07:21:49;7.80;;;7.00;;
23129;SDS011;11734;51.046;13.778;2023-08-20T07:24:16;8.17;;;6.77;;
23129;SDS011;11734;51.046;13.778;2023-08-20T07:26:43;8.23;;;7.43;;
23129;SDS011;11734;51.046;13.778;2023-08-20T07:29:10;8.07;;;7.27;;
23129;SDS011;11734;51.046;13.778;2023-08-20T07:31:37;8.47;;;7.60;;
23129;SDS011;11734;51.046;13.778;2023-08-20T07:34:04;11.30;;;9.20;;
23129;SDS011;11734;51.046;13.778;2023-08-20T07:36:32;7.93;;;7.07;;
23129;SDS011;11734;51.046;13.778;2023-08-20T07:38:59;7.73;;;7.00;;
23129;SDS011;11734;51.046;13.778;2023-08-20T07:41:28;8.13;;;7.33;;
23129;SDS011;11734;51.046;13.778;2023-08-20T07:43:55;8.70;;;7.90;;
23129;SDS011;11734;51.046;13.778;2023-08-20T07:46:22;7.63;;;6.93;;
23129;SDS011;11734;51.046;13.778;2023-08-20T07:48:49;7.83;;;6.83;;
23129;SDS011;11734;51.046;13.778;2023-08-20T07:51:16;7.37;;;6.60;;
23129;SDS011;11734;51.046;13.778;2023-08-20T07:53:44;9.03;;;7.70;;
23129;SDS011;11734;51.046;13.778;2023-08-20T07:56:11;9.90;;;7.33;;
23129;SDS011;11734;51.046;13.778;2023-08-20T07:58:38;7.33;;;6.53;;
23129;SDS011;11734;51.046;13.778;2023-08-20T08:01:05;9.13;;;7.53;;
23129;SDS011;11734;51.046;13.778;2023-08-20T08:03:32;6.83;;;6.13;;
23129;SDS011;11734;51.046;13.778;2023-08-20T08:05:59;7.80;;;7.00;;
23129;SDS011;11734;51.046;13.778;2023-08-20T08:08:26;7.33;;;6.63;;
23129;SDS011;11734;51.046;13.778;2023-08-20T08:10:53;7.73;;;6.87;;
23129;SDS011;11734;51.046;13.778;2023-08-20T08:13:21;7.87;;;7.13;;
23129;SDS011;11734;51.046;13.778;2023-08-20T08:15:49;7.30;;;6.63;;
23129;SDS011;11734;51.046;13.778;2023-08-20T08:18:18;8.27;;;7.50;;
23129;SDS011;11734;51.046;13.778;2023-08-20T08:20:46;8.10;;;7.40;;
23129;SDS011;11734;51.046;13.778;2023-08-20T08:23:13;8.70;;;7.50;;
23129;SDS011;11734;51.046;13.778;2023-08-20T08:25:40;8.10;;;6.70;;
23129;SDS011;11734;51.046;13.778;2023-08-20T08:28:07;7.33;;;6.60;;
23129;SDS011;11734;51.046;13.778;2023-08-20T08:30:34;8.00;;;7.20;;
23129;SDS011;11734;51.046;13.778;2023-08-20T08:33:01;7.73;;;6.93;;
23129;SDS011;11734;51.046;13.778;2023-08-20T08:35:28;7.87;;;7.17;;
23129;SDS011;11734;51.046;13.778;2023-08-20T08:37:56;8.53;;;6.67;;
23129;SDS011;11734;51.046;13.778;2023-08-20T08:40:26;7.53;;;6.43;;
23129;SDS011;11734;51.046;13.778;2023-08-20T08:42:55;8.13;;;7.33;;
23129;SDS011;11734;51.046;13.778;2023-08-20T08:45:22;8.40;;;6.97;;
23129;SDS011;11734;51.046;13.778;2023-08-20T08:47:50;7.73;;;6.80;;
23129;SDS011;11734;51.046;13.778;2023-08-20T08:50:20;8.23;;;7.33;;
23129;SDS011;11734;51.046;13.778;2023-08-20T08:53:06;7.17;;;6.47;;
23129;SDS011;11734;51.046;13.778;2023-08-20T08:55:34;7.23;;;6.53;;
23129;SDS011;11734;51.046;13.778;2023-08-20T08:58:01;8.33;;;6.83;;
23129;SDS011;11734;51.046;13.778;2023-08-20T09:00:28;8.33;;;6.60;;
23129;SDS011;11734;51.046;13.778;2023-08-20T09:02:57;7.53;;;6.83;;
23129;SDS011;11734;51.046;13.778;2023-08-20T09:05:24;7.67;;;6.90;;
23129;SDS011;11734;51.046;13.778;2023-08-20T09:07:57;9.30;;;7.50;;
23129;SDS011;11734;51.046;13.778;2023-08-20T09:10:27;8.03;;;7.23;;
23129;SDS011;11734;51.046;13.778;2023-08-20T09:12:54;8.17;;;7.33;;
23129;SDS011;11734;51.046;13.778;2023-08-20T09:15:32;8.33;;;6.93;;
23129;SDS011;11734;51.046;13.778;2023-08-20T09:18:00;8.87;;;8.00;;
23129;SDS011;11734;51.046;13.778;2023-08-20T09:20:35;8.53;;;7.50;;
23129;SDS011;11734;51.046;13.778;2023-08-20T09:23:04;8.73;;;7.83;;
23129;SDS011;11734;51.046;13.778;2023-08-20T09:25:31;9.13;;;8.20;;
23129;SDS011;11734;51.046;13.778;2023-08-20T09:28:02;9.70;;;8.13;;
23129;SDS011;11734;51.046;13.778;2023-08-20T09:30:58;9.10;;;8.20;;
23129;SDS011;11734;51.046;13.778;2023-08-20T09:33:29;9.70;;;8.17;;
23129;SDS011;11734;51.046;13.778;2023-08-20T09:35:56;8.60;;;7.80;;
23129;SDS011;11734;51.046;13.778;2023-08-20T09:38:23;9.50;;;8.57;;
23129;SDS011;11734;51.046;13.778;2023-08-20T09:40:51;9.37;;;8.47;;
23129;SDS011;11734;51.046;13.778;2023-08-20T09:43:25;9.73;;;8.67;;
23129;SDS011;11734;51.046;13.778;2023-08-20T09:45:56;9.47;;;8.57;;
23129;SDS011;11734;51.046;13.778;2023-08-20T09:48:27;9.33;;;8.43;;
23129;SDS011;11734;51.046;13.778;2023-08-20T09:50:56;9.27;;;8.37;;
23129;SDS011;11734;51.046;13.778;2023-08-20T09:53:31;9.43;;;8.52;;
23129;SDS011;11734;51.046;13.778;2023-08-20T09:56:15;8.23;;;7.53;;
23129;SDS011;11734;51.046;13.778;2023-08-20T09:58:44;9.43;;;8.53;;
23129;SDS011;11734;51.046;13.778;2023-08-20T10:01:12;9.65;;;8.70;;
23129;SDS011;11734;51.046;13.778;2023-08-20T10:03:39;9.47;;;8.50;;
23129;SDS011;11734;51.046;13.778;2023-08-20T10:06:09;9.77;;;8.87;;
23129;SDS011;11734;51.046;13.778;2023-08-20T10:08:37;8.50;;;7.70;;
23129;SDS011;11734;51.046;13.778;2023-08-20T10:11:04;9.57;;;8.57;;
23129;SDS011;11734;51.046;13.778;2023-08-20T10:13:31;9.30;;;8.30;;
23129;SDS011;11734;51.046;13.778;2023-08-20T10:15:58;32.30;;;29.10;;
23129;SDS011;11734;51.046;13.778;2023-08-20T10:18:26;8.53;;;7.73;;
23129;SDS011;11734;51.046;13.778;2023-08-20T10:20:53;8.47;;;7.67;;
23129;SDS011;11734;51.046;13.778;2023-08-20T10:23:22;8.73;;;7.83;;
23129;SDS011;11734;51.046;13.778;2023-08-20T10:25:50;9.40;;;8.50;;
23129;SDS011;11734;51.046;13.778;2023-08-20T10:28:22;9.40;;;8.60;;
23129;SDS011;11734;51.046;13.778;2023-08-20T10:33:47;6.95;;;6.35;;
23129;SDS011;11734;51.046;13.778;2023-08-20T10:38:46;7.85;;;7.15;;
23129;SDS011;11734;51.046;13.778;2023-08-20T10:41:14;8.02;;;7.35;;
23129;SDS011;11734;51.046;13.778;2023-08-20T10:43:46;7.70;;;7.00;;
23129;SDS011;11734;51.046;13.778;2023-08-20T10:48:56;8.63;;;7.45;;
23129;SDS011;11734;51.046;13.778;2023-08-20T10:51:28;8.00;;;7.30;;
23129;SDS011;11734;51.046;13.778;2023-08-20T10:59:14;8.07;;;7.30;;
23129;SDS011;11734;51.046;13.778;2023-08-20T11:01:43;7.50;;;6.80;;
23129;SDS011;11734;51.046;13.778;2023-08-20T11:04:20;6.70;;;6.10;;
23129;SDS011;11734;51.046;13.778;2023-08-20T11:06:55;6.55;;;5.82;;
23129;SDS011;11734;51.046;13.778;2023-08-20T11:09:27;6.10;;;5.60;;
23129;SDS011;11734;51.046;13.778;2023-08-20T11:11:56;5.53;;;5.03;;
23129;SDS011;11734;51.046;13.778;2023-08-20T11:14:23;6.25;;;5.65;;
23129;SDS011;11734;51.046;13.778;2023-08-20T11:16:51;5.95;;;5.30;;
23129;SDS011;11734;51.046;13.778;2023-08-20T11:19:19;6.03;;;5.53;;
23129;SDS011;11734;51.046;13.778;2023-08-20T11:21:47;5.55;;;5.05;;
23129;SDS011;11734;51.046;13.778;2023-08-20T11:24:15;5.70;;;5.20;;
23129;SDS011;11734;51.046;13.778;2023-08-20T11:26:44;6.22;;;5.65;;
23129;SDS011;11734;51.046;13.778;2023-08-20T11:29:12;6.10;;;5.55;;
23129;SDS011;11734;51.046;13.778;2023-08-20T11:31:40;6.57;;;5.95;;
23129;SDS011;11734;51.046;13.778;2023-08-20T11:34:08;5.45;;;4.95;;
23129;SDS011;11734;51.046;13.778;2023-08-20T11:36:35;5.47;;;5.07;;
23129;SDS011;11734;51.046;13.778;2023-08-20T11:39:03;6.03;;;5.53;;
23129;SDS011;11734;51.046;13.778;2023-08-20T11:41:30;6.13;;;5.57;;
23129;SDS011;11734;51.046;13.778;2023-08-20T11:43:58;6.32;;;5.78;;
23129;SDS011;11734;51.046;13.778;2023-08-20T11:46:25;6.10;;;5.55;;
23129;SDS011;11734;51.046;13.778;2023-08-20T11:54:07;6.57;;;5.97;;
23129;SDS011;11734;51.046;13.778;2023-08-20T11:56:34;6.20;;;5.70;;
23129;SDS011;11734;51.046;13.778;2023-08-20T11:59:02;6.40;;;5.90;;
23129;SDS011;11734;51.046;13.778;2023-08-20T12:01:30;6.10;;;5.60;;
23129;SDS011;11734;51.046;13.778;2023-08-20T12:04:04;6.00;;;5.50;;
23129;SDS011;11734;51.046;13.778;2023-08-20T12:06:32;6.18;;;5.68;;
23129;SDS011;11734;51.046;13.778;2023-08-20T12:09:01;6.22;;;5.72;;
23129;SDS011;11734;51.046;13.778;2023-08-20T12:11:30;5.85;;;5.35;;
23129;SDS011;11734;51.046;13.778;2023-08-20T12:13:59;6.53;;;5.93;;
23129;SDS011;11734;51.046;13.778;2023-08-20T12:16:27;6.53;;;6.03;;
23129;SDS011;11734;51.046;13.778;2023-08-20T12:18:54;7.95;;;6.10;;
23129;SDS011;11734;51.046;13.778;2023-08-20T12:21:21;6.57;;;5.43;;
23129;SDS011;11734;51.046;13.778;2023-08-20T12:23:49;6.18;;;5.57;;
23129;SDS011;11734;51.046;13.778;2023-08-20T12:26:16;6.20;;;5.70;;
23129;SDS011;11734;51.046;13.778;2023-08-20T12:28:42;5.95;;;5.35;;
23129;SDS011;11734;51.046;13.778;2023-08-20T12:31:09;7.00;;;5.50;;
23129;SDS011;11734;51.046;13.778;2023-08-20T12:33:37;6.20;;;5.70;;
23129;SDS011;11734;51.046;13.778;2023-08-20T12:36:03;6.55;;;6.03;;
23129;SDS011;11734;51.046;13.778;2023-08-20T12:38:31;6.55;;;5.68;;
23129;SDS011;11734;51.046;13.778;2023-08-20T12:41:00;6.80;;;5.93;;
23129;SDS011;11734;51.046;13.778;2023-08-20T12:43:27;6.60;;;5.90;;
23129;SDS011;11734;51.046;13.778;2023-08-20T12:45:55;5.80;;;5.30;;
23129;SDS011;11734;51.046;13.778;2023-08-20T12:48:22;6.67;;;5.77;;
23129;SDS011;11734;51.046;13.778;2023-08-20T12:50:49;6.87;;;5.63;;
23129;SDS011;11734;51.046;13.778;2023-08-20T12:53:15;7.67;;;6.37;;
23129;SDS011;11734;51.046;13.778;2023-08-20T12:55:42;6.33;;;5.73;;
23129;SDS011;11734;51.046;13.778;2023-08-20T12:58:09;6.33;;;5.73;;
23129;SDS011;11734;51.046;13.778;2023-08-20T13:00:36;7.50;;;5.13;;
23129;SDS011;11734;51.046;13.778;2023-08-20T13:03:03;6.27;;;5.47;;
23129;SDS011;11734;51.046;13.778;2023-08-20T13:05:31;6.40;;;5.80;;
23129;SDS011;11734;51.046;13.778;2023-08-20T13:07:58;6.53;;;5.40;;
23129;SDS011;11734;51.046;13.778;2023-08-20T13:10:25;6.30;;;5.80;;
23129;SDS011;11734;51.046;13.778;2023-08-20T13:12:57;6.00;;;5.37;;
23129;SDS011;11734;51.046;13.778;2023-08-20T13:15:27;6.90;;;5.70;;
23129;SDS011;11734;51.046;13.778;2023-08-20T13:17:54;5.70;;;5.20;;
23129;SDS011;11734;51.046;13.778;2023-08-20T13:20:22;6.00;;;5.40;;
23129;SDS011;11734;51.046;13.778;2023-08-20T13:22:50;5.70;;;5.17;;
23129;SDS011;11734;51.046;13.778;2023-08-20T13:25:18;6.33;;;5.67;;
23129;SDS011;11734;51.046;13.778;2023-08-20T13:27:48;6.13;;;5.60;;
23129;SDS011;11734;51.046;13.778;2023-08-20T13:30:15;5.30;;;4.80;;
23129;SDS011;11734;51.046;13.778;2023-08-20T13:32:44;6.57;;;5.97;;
23129;SDS011;11734;51.046;13.778;2023-08-20T13:35:10;5.83;;;5.33;;
23129;SDS011;11734;51.046;13.778;2023-08-20T13:37:37;5.70;;;5.20;;
23129;SDS011;11734;51.046;13.778;2023-08-20T13:40:05;6.33;;;5.73;;
23129;SDS011;11734;51.046;13.778;2023-08-20T13:42:33;5.43;;;4.93;;
23129;SDS011;11734;51.046;13.778;2023-08-20T13:45:00;6.63;;;5.30;;
23129;SDS011;11734;51.046;13.778;2023-08-20T13:47:27;6.13;;;5.63;;
23129;SDS011;11734;51.046;13.778;2023-08-20T13:49:55;6.23;;;5.57;;
23129;SDS011;11734;51.046;13.778;2023-08-20T13:52:21;5.90;;;5.30;;
23129;SDS011;11734;51.046;13.778;2023-08-20T13:54:48;6.00;;;5.50;;
23129;SDS011;11734;51.046;13.778;2023-08-20T13:57:15;6.03;;;5.53;;
23129;SDS011;11734;51.046;13.778;2023-08-20T13:59:42;6.80;;;6.10;;
23129;SDS011;11734;51.046;13.778;2023-08-20T14:02:09;6.43;;;5.77;;
23129;SDS011;11734;51.046;13.778;2023-08-20T14:04:35;5.70;;;5.20;;
23129;SDS011;11734;51.046;13.778;2023-08-20T14:07:03;6.27;;;5.40;;
23129;SDS011;11734;51.046;13.778;2023-08-20T14:09:30;5.57;;;5.07;;
23129;SDS011;11734;51.046;13.778;2023-08-20T14:11:57;6.13;;;5.23;;
23129;SDS011;11734;51.046;13.778;2023-08-20T14:14:24;6.00;;;5.50;;
23129;SDS011;11734;51.046;13.778;2023-08-20T14:16:51;5.60;;;5.17;;
23129;SDS011;11734;51.046;13.778;2023-08-20T14:19:18;6.60;;;6.00;;
23129;SDS011;11734;51.046;13.778;2023-08-20T14:21:44;6.50;;;5.90;;
23129;SDS011;11734;51.046;13.778;2023-08-20T14:24:11;6.17;;;5.67;;
23129;SDS011;11734;51.046;13.778;2023-08-20T14:26:38;6.63;;;6.03;;
23129;SDS011;11734;51.046;13.778;2023-08-20T14:29:05;6.60;;;5.67;;
23129;SDS011;11734;51.046;13.778;2023-08-20T14:31:32;5.70;;;5.20;;
23129;SDS011;11734;51.046;13.778;2023-08-20T14:33:59;6.50;;;5.77;;
23129;SDS011;11734;51.046;13.778;2023-08-20T14:36:26;7.20;;;5.93;;
23129;SDS011;11734;51.046;13.778;2023-08-20T14:38:52;6.37;;;5.87;;
23129;SDS011;11734;51.046;13.778;2023-08-20T14:41:19;6.70;;;6.10;;
23129;SDS011;11734;51.046;13.778;2023-08-20T14:43:46;7.07;;;6.37;;
23129;SDS011;11734;51.046;13.778;2023-08-20T14:46:13;6.50;;;5.90;;
23129;SDS011;11734;51.046;13.778;2023-08-20T14:48:40;6.23;;;5.63;;
23129;SDS011;11734;51.046;13.778;2023-08-20T14:51:25;6.27;;;5.67;;
23129;SDS011;11734;51.046;13.778;2023-08-20T14:53:52;6.37;;;5.77;;
23129;SDS011;11734;51.046;13.778;2023-08-20T14:56:19;7.20;;;5.87;;
23129;SDS011;11734;51.046;13.778;2023-08-20T14:58:46;5.67;;;4.97;;
23129;SDS011;11734;51.046;13.778;2023-08-20T15:01:13;6.50;;;5.90;;
23129;SDS011;11734;51.046;13.778;2023-08-20T15:03:40;6.37;;;5.87;;
23129;SDS011;11734;51.046;13.778;2023-08-20T15:06:07;6.83;;;6.13;;